Accueil
METAR-TAF:

METAR-TAF

Aéroports :

Brescia Ghedi, Italie

latitude: 45-25N, longitude: 010-17E, altitude: 102 m

Observation

Le bulletin a été fait il y a 1 heure et 45 minutes, à 23:55 UTC
Vent 2 kt de est
Température 19°C
Humidité 88%
Pression 1010 hPa
Visibilité 10 km ou plus
pas de nuages en-dessous de 1500 mètres et pas de cumulonimbus.

METAR: LIPL 012355Z 10002KT CAVOK 19/17 Q1010 RMK FEW FEW100 VIS MIN 9999 WIND THR31 09002KT WIND THR13 11003KT BLU

Heure: 03:40 (01:40 UTC)

Prévision

Le bulletin a été fait il y a 2 heures et 40 minutes, à 23:00 UTC
Prévision valable du 02 à 00 UTC au 02 à 09 UTC
Vent 5 kt de direction variable
Visibilité 10 km ou plus
Nuages épars à une hauteur de 3000 ft
Temporairement
du 02 à 00 UTC au 02 à 05 UTC
Visibilité: 5000 m
brume

TAF: LIPL 012300Z 0200/0209 VRB05KT 9999 SCT030 PR0B30 TEMPO 0200/0205 5000 BR

Observations et prévisions météorologiques de plus de 4000 aéroports (messages METAR et TAF).

Les stations disponibles sont représentées par des disques jaunes et rouges sur la carte.

Passer la souris dessus pour voir le nom de la station.

Cliquer dessus pour voir les observations et prévisions météorologiques.

Pour changer de carte: cliquez sur les boutons verts avec une croix noire pour zoomer, sur le bouton vert avec un tiret pour effectuer un zoom arrière, ou sur les flèches vertes pour les cartes adjacentes.


METAR-TAF: